createdAt,value
2022-11-06T00:00:52.996Z,18.6
2022-11-06T00:06:00.465Z,18.5
2022-11-06T00:11:06.890Z,18.5
2022-11-06T00:16:12.819Z,18.6
2022-11-06T00:21:20.276Z,18.5
2022-11-06T00:26:27.487Z,18.5
2022-11-06T00:31:54.372Z,18.5
2022-11-06T00:37:00.025Z,18.5
2022-11-06T00:42:21.234Z,18.6
2022-11-06T00:47:42.772Z,18.5
2022-11-06T00:53:06.573Z,18.5
2022-11-06T00:58:28.768Z,18.5
2022-11-06T01:03:51.952Z,18.5
2022-11-06T01:09:13.861Z,18.5
2022-11-06T01:15:03.196Z,18.4
2022-11-06T01:20:24.916Z,18.5
2022-11-06T01:25:46.952Z,18.5
2022-11-06T01:31:52.159Z,18.5
2022-11-06T01:36:58.530Z,18.4
2022-11-06T01:42:20.291Z,18.4
2022-11-06T01:48:02.381Z,18.4
2022-11-06T01:53:23.831Z,18.4
2022-11-06T01:58:46.952Z,18.4
2022-11-06T02:04:10.877Z,18.4
2022-11-06T02:09:16.290Z,18.4
2022-11-06T02:14:53.950Z,18.5
2022-11-06T02:20:30.570Z,18.4
2022-11-06T02:26:06.796Z,18.4
2022-11-06T02:31:28.924Z,18.4
2022-11-06T02:36:50.925Z,18.4
2022-11-06T02:42:12.594Z,18.4
2022-11-06T02:47:49.928Z,18.3
2022-11-06T02:53:27.382Z,18.3
2022-11-06T02:58:49.388Z,18.3
2022-11-06T03:04:12.644Z,18.3
2022-11-06T03:09:35.282Z,18.3
2022-11-06T03:15:12.023Z,18.3
2022-11-06T03:20:49.667Z,18.3
2022-11-06T03:26:27.387Z,18.1
2022-11-06T03:31:39.493Z,18.2
2022-11-06T03:37:00.635Z,18.2
2022-11-06T03:42:38.321Z,18.2
2022-11-06T03:48:14.412Z,18.1
2022-11-06T03:53:50.939Z,18.1
2022-11-06T03:59:29.520Z,18.1
2022-11-06T04:05:07.513Z,18.1
2022-11-06T04:10:30.062Z,18.1
2022-11-06T04:15:51.689Z,18.1
2022-11-06T04:20:58.081Z,18.1
2022-11-06T04:26:35.896Z,18.1
2022-11-06T04:32:12.752Z,18.1
2022-11-06T04:37:21.354Z,18
2022-11-06T04:42:43.382Z,18
2022-11-06T04:48:05.625Z,18
2022-11-06T04:53:27.333Z,18
2022-11-06T04:59:14.311Z,17.9
2022-11-06T05:04:36.420Z,18.1
2022-11-06T05:10:17.629Z,18
2022-11-06T05:15:54.658Z,18
2022-11-06T05:21:33.019Z,17.9
2022-11-06T05:27:15.655Z,17.8
2022-11-06T05:32:53.730Z,17.8
2022-11-06T05:38:30.774Z,17.9
2022-11-06T05:44:07.210Z,17.8
2022-11-06T05:50:09.620Z,17.8
2022-11-06T05:55:48.449Z,17.8
2022-11-06T06:01:09.707Z,17.8
2022-11-06T06:06:47.853Z,17.8
2022-11-06T06:12:26.055Z,17.8
2022-11-06T06:18:10.203Z,17.8
2022-11-06T06:23:47.872Z,17.7
2022-11-06T06:29:17.073Z,17.7
2022-11-06T06:34:54.415Z,17.7
2022-11-06T06:40:22.213Z,17.6
2022-11-06T06:46:06.740Z,17.7
2022-11-06T06:51:44.734Z,17.6
2022-11-06T06:57:22.253Z,17.7
2022-11-06T07:03:01.988Z,17.6
2022-11-06T07:08:31.004Z,17.6
2022-11-06T07:14:09.619Z,17.6
2022-11-06T07:19:47.176Z,17.7
2022-11-06T07:25:17.794Z,17.6
2022-11-06T07:30:40.447Z,17.6
2022-11-06T07:36:02.438Z,17.6
2022-11-06T07:41:24.611Z,17.6
2022-11-06T07:46:52.514Z,17.6
2022-11-06T07:52:05.323Z,17.6
2022-11-06T07:57:27.379Z,17.6
2022-11-06T08:02:54.521Z,17.6
2022-11-06T08:08:01.617Z,17.6
2022-11-06T08:13:24.838Z,17.6
2022-11-06T08:18:50.681Z,17.6
2022-11-06T08:24:17.678Z,17.6
2022-11-06T08:29:43.279Z,17.6
2022-11-06T08:35:07.131Z,17.6
2022-11-06T08:40:16.042Z,17.6
2022-11-06T08:45:24.340Z,17.6
2022-11-06T08:50:49.832Z,17.6
2022-11-06T08:56:30.909Z,17.9
2022-11-06T09:02:16.892Z,18.1
2022-11-06T09:08:02.395Z,18.1
2022-11-06T09:13:47.470Z,18.1
2022-11-06T09:19:15.549Z,18
2022-11-06T09:25:06.585Z,18
2022-11-06T09:30:47.850Z,18.4
2022-11-06T09:36:17.515Z,18.9
2022-11-06T09:42:02.990Z,19.1
2022-11-06T09:48:14.197Z,21.6
2022-11-06T09:53:56.920Z,22.9
2022-11-06T09:59:42.354Z,23.7
2022-11-06T10:05:28.712Z,24.6
2022-11-06T10:11:06.721Z,25.3
2022-11-06T10:16:44.139Z,25.9
2022-11-06T10:22:24.151Z,26.3
2022-11-06T10:28:02.074Z,26.5
2022-11-06T10:33:39.910Z,26.9
2022-11-06T10:39:21.636Z,27.4
2022-11-06T10:44:57.984Z,27.6
2022-11-06T10:50:41.049Z,27.6
2022-11-06T10:56:24.638Z,27.2
2022-11-06T11:02:03.494Z,27.1
2022-11-06T11:07:47.481Z,26.7
2022-11-06T11:13:24.386Z,26.4
2022-11-06T11:18:47.428Z,27.4
2022-11-06T11:24:13.403Z,28.4
2022-11-06T11:29:38.133Z,28.9
2022-11-06T11:35:06.863Z,29.3
2022-11-06T11:40:30.053Z,29.6
2022-11-06T11:45:52.680Z,29.7
2022-11-06T11:51:34.542Z,29.6
2022-11-06T11:57:51.669Z,29.4
2022-11-06T12:03:34.333Z,29.3
2022-11-06T12:09:12.361Z,29.2
2022-11-06T12:14:34.610Z,29.9
2022-11-06T12:20:04.548Z,30.3
2022-11-06T12:25:42.253Z,30.4
2022-11-06T12:31:19.791Z,30.4
2022-11-06T12:37:26.386Z,30.5
2022-11-06T12:43:10.027Z,30.3
2022-11-06T12:48:49.876Z,29.8
2022-11-06T12:54:12.116Z,30
2022-11-06T12:59:34.297Z,29.8
2022-11-06T13:05:14.625Z,29.6
2022-11-06T13:10:39.597Z,29.4
2022-11-06T13:16:18.336Z,29
2022-11-06T13:21:56.967Z,29.1
2022-11-06T13:27:36.515Z,30.1
2022-11-06T13:33:14.296Z,30.3
2022-11-06T13:38:51.623Z,30
2022-11-06T13:44:13.652Z,29.7
2022-11-06T13:49:56.897Z,29.5
2022-11-06T13:54:49.589Z,30
2022-11-06T14:00:13.768Z,30.3
2022-11-06T14:05:59.274Z,30.3
2022-11-06T14:11:36.833Z,30.3
2022-11-06T14:17:14.489Z,29.9
2022-11-06T14:22:53.690Z,30.3
2022-11-06T14:28:37.117Z,30.3
2022-11-06T14:34:50.084Z,30.4
2022-11-06T14:40:16.958Z,30.2
2022-11-06T14:45:59.815Z,30
2022-11-06T14:51:39.789Z,30.3
2022-11-06T14:57:19.413Z,29.9
2022-11-06T15:02:59.398Z,29.7
2022-11-06T15:09:10.389Z,30.1
2022-11-06T15:14:58.218Z,30.4
2022-11-06T15:20:19.719Z,30
2022-11-06T15:25:11.188Z,30.5
2022-11-06T15:30:49.285Z,30.2
2022-11-06T15:36:11.595Z,30.3
2022-11-06T15:41:40.429Z,29.8
2022-11-06T15:47:18.562Z,29.5
2022-11-06T15:52:56.628Z,29.3
2022-11-06T15:58:47.710Z,30.4
2022-11-06T16:04:32.149Z,30.9
2022-11-06T16:10:10.304Z,31.1
2022-11-06T16:15:54.140Z,31.1
2022-11-06T16:21:36.654Z,30.6
2022-11-06T16:26:49.317Z,30.6
2022-11-06T16:31:47.088Z,30.1
2022-11-06T16:37:28.835Z,29.8
2022-11-06T16:43:41.454Z,29.5
2022-11-06T16:49:19.258Z,29.1
2022-11-06T16:54:42.300Z,28.7
2022-11-06T17:00:04.989Z,28.3
2022-11-06T17:05:32.616Z,27.9
2022-11-06T17:10:54.982Z,27.6
2022-11-06T17:16:16.912Z,27.4
2022-11-06T17:21:54.899Z,27.2
2022-11-06T17:27:41.297Z,26.9
2022-11-06T17:33:03.795Z,26.8
2022-11-06T17:38:26.346Z,26.6
2022-11-06T17:44:04.226Z,26.4
2022-11-06T17:49:15.934Z,25.9
2022-11-06T17:54:39.753Z,25.6
2022-11-06T18:00:07.311Z,25.3
2022-11-06T18:06:21.824Z,24.9
2022-11-06T18:11:59.320Z,24.6
2022-11-06T18:17:36.831Z,24.4
2022-11-06T18:22:12.459Z,24.2
2022-11-06T18:27:04.016Z,24
2022-11-06T18:32:29.828Z,23.8
2022-11-06T18:38:13.729Z,23.6
2022-11-06T18:43:55.260Z,23.4
2022-11-06T18:49:20.708Z,23.3
2022-11-06T18:55:47.863Z,23.1
2022-11-06T19:01:33.519Z,22.9
2022-11-06T19:07:12.112Z,22.8
2022-11-06T19:12:39.953Z,22.6
2022-11-06T19:18:17.728Z,22.5
2022-11-06T19:23:51.957Z,22.4
2022-11-06T19:29:58.908Z,22.3
2022-11-06T19:35:38.810Z,22.1
2022-11-06T19:40:59.785Z,22
2022-11-06T19:46:43.835Z,21.9
2022-11-06T19:53:32.979Z,21.9
2022-11-06T20:00:14.868Z,21.7
2022-11-06T20:05:38.208Z,21.7
2022-11-06T20:11:07.747Z,21.6
2022-11-06T20:16:47.660Z,21.6
2022-11-06T20:22:15.779Z,21.5
2022-11-06T20:27:43.872Z,21.4
2022-11-06T20:33:24.981Z,21.3
2022-11-06T20:39:03.338Z,21.3
2022-11-06T20:44:44.005Z,21.3
2022-11-06T20:50:07.993Z,21.2
2022-11-06T20:56:27.153Z,21.2
2022-11-06T21:12:20.311Z,21
2022-11-06T21:17:58.130Z,21
2022-11-06T21:23:25.383Z,21
2022-11-06T21:28:50.258Z,21
2022-11-06T21:34:19.880Z,20.9
2022-11-06T21:39:53.132Z,20.9
2022-11-06T21:45:16.016Z,20.9
2022-11-06T21:50:49.097Z,20.8
2022-11-06T21:56:11.499Z,20.8
2022-11-06T22:01:21.793Z,20.8
2022-11-06T22:07:00.885Z,20.8
2022-11-06T22:12:44.897Z,20.7
2022-11-06T22:18:07.327Z,20.8
2022-11-06T22:23:14.446Z,20.7
2022-11-06T22:31:03.039Z,20.6
2022-11-06T22:36:10.164Z,20.6
2022-11-06T22:41:48.248Z,20.6
2022-11-06T22:47:31.679Z,20.6
2022-11-06T22:52:53.827Z,20.6
2022-11-06T22:58:31.663Z,20.6
2022-11-06T23:04:13.544Z,20.5
2022-11-06T23:09:53.256Z,20.5
2022-11-06T23:15:32.628Z,20.4
2022-11-06T23:20:54.181Z,20.4
2022-11-06T23:26:01.480Z,20.4
2022-11-06T23:31:26.770Z,20.3
2022-11-06T23:36:40.814Z,20.3
2022-11-06T23:42:03.222Z,20.3
2022-11-06T23:47:25.660Z,20.3
2022-11-06T23:52:49.752Z,20.2
2022-11-06T23:58:12.154Z,20.2
